Time,TemperatureF,DewpointF,PressureIn,WindDirection,WindDirectionDegrees,WindSpeedMPH,WindSpeedGustMPH,Humidity,HourlyPrecipIn,Conditions,Clouds,dailyrainin,SoftwareType,DateUTC
2013-08-17 00:01:00,60.1,47.0,30.21,SSE,147,0.0,0.0,62,0.00,,---,0.00,VWS V14.01,2013-08-17 04:01:00,
2013-08-17 00:06:00,59.9,46.9,30.21,SSE,147,0.0,0.0,62,0.00,,---,0.00,VWS V14.01,2013-08-17 04:06:00,
2013-08-17 00:11:00,59.7,47.1,30.21,SSE,147,0.0,0.0,63,0.00,,---,0.00,VWS V14.01,2013-08-17 04:11:00,
2013-08-17 00:16:00,59.7,47.1,30.21,SSE,147,0.0,0.0,63,0.00,,---,0.00,VWS V14.01,2013-08-17 04:16:00,
2013-08-17 00:21:00,59.5,47.4,30.21,SSE,147,0.0,0.0,64,0.00,,---,0.00,VWS V14.01,2013-08-17 04:21:00,
2013-08-17 00:26:00,59.5,47.4,30.21,SSE,147,0.0,0.0,64,0.00,,---,0.00,VWS V14.01,2013-08-17 04:26:00,
2013-08-17 00:31:00,59.4,47.6,30.21,SSE,147,0.0,0.0,65,0.00,,---,0.00,VWS V14.01,2013-08-17 04:31:00,
2013-08-17 00:36:00,59.4,47.6,30.24,SSE,147,0.0,0.0,65,0.00,,---,0.00,VWS V14.01,2013-08-17 04:36:00,
2013-08-17 00:41:00,59.2,47.4,30.24,SSE,147,0.0,0.0,65,0.00,,---,0.00,VWS V14.01,2013-08-17 04:41:00,
2013-08-17 00:46:00,59.2,47.4,30.24,SSE,147,0.0,0.0,65,0.00,,---,0.00,VWS V14.01,2013-08-17 04:46:00,
2013-08-17 00:51:00,59.0,47.3,30.24,SSE,148,0.0,0.0,65,0.00,,---,0.00,VWS V14.01,2013-08-17 04:51:00,
2013-08-17 00:56:00,58.8,47.1,30.24,SSE,147,0.0,0.0,65,0.00,,---,0.00,VWS V14.01,2013-08-17 04:56:00,
2013-08-17 01:01:00,58.8,47.5,30.24,SSE,147,0.0,0.0,66,0.00,,---,0.00,VWS V14.01,2013-08-17 05:01:00,
2013-08-17 01:06:00,58.6,47.3,30.24,SSE,147,0.0,0.0,66,0.00,,---,0.00,VWS V14.01,2013-08-17 05:06:00,
2013-08-17 01:11:00,58.6,47.7,30.24,SSE,147,0.0,0.0,67,0.00,,---,0.00,VWS V14.01,2013-08-17 05:11:00,
2013-08-17 01:16:00,58.5,47.6,30.24,SSE,147,0.0,0.0,67,0.00,,---,0.00,VWS V14.01,2013-08-17 05:16:00,
2013-08-17 01:21:00,58.5,47.6,30.24,SSE,147,0.0,0.0,67,0.00,,---,0.00,VWS V14.01,2013-08-17 05:21:00,
2013-08-17 01:26:00,58.5,47.6,30.24,SSE,147,0.0,0.0,67,0.00,,---,0.00,VWS V14.01,2013-08-17 05:26:00,
2013-08-17 01:31:00,58.1,47.2,30.24,SSE,147,0.0,0.0,67,0.00,,---,0.00,VWS V14.01,2013-08-17 05:31:00,
2013-08-17 01:37:00,58.1,47.6,30.24,SSE,147,0.0,0.0,68,0.00,,---,0.00,VWS V14.01,2013-08-17 05:37:00,
2013-08-17 01:42:00,58.1,48.0,30.24,SSE,147,0.0,0.0,69,0.00,,---,0.00,VWS V14.01,2013-08-17 05:42:00,
2013-08-17 01:47:00,57.9,47.8,30.24,SSE,147,0.0,0.0,69,0.00,,---,0.00,VWS V14.01,2013-08-17 05:47:00,
2013-08-17 01:52:00,57.9,47.8,30.24,SSE,147,0.0,0.0,69,0.00,,---,0.00,VWS V14.01,2013-08-17 05:52:00,
2013-08-17 01:57:00,57.9,47.8,30.24,SSE,147,0.0,0.0,69,0.00,,---,0.00,VWS V14.01,2013-08-17 05:57:00,
2013-08-17 02:02:00,57.9,48.2,30.24,SSE,147,0.0,0.0,70,0.00,,---,0.00,VWS V14.01,2013-08-17 06:02:00,
2013-08-17 02:07:00,57.9,48.2,30.24,SSE,147,0.0,0.0,70,0.00,,---,0.00,VWS V14.01,2013-08-17 06:07:00,
2013-08-17 02:12:00,57.9,48.6,30.24,SSE,147,0.0,0.0,71,0.00,,---,0.00,VWS V14.01,2013-08-17 06:12:00,
2013-08-17 02:17:00,57.7,48.4,30.24,SSE,147,0.0,0.0,71,0.00,,---,0.00,VWS V14.01,2013-08-17 06:17:00,
2013-08-17 02:22:00,57.7,48.4,30.24,SSE,147,0.0,0.0,71,0.00,,---,0.00,VWS V14.01,2013-08-17 06:22:00,
2013-08-17 02:27:00,57.7,48.4,30.24,SSE,147,0.0,0.0,71,0.00,,---,0.00,VWS V14.01,2013-08-17 06:27:00,
2013-08-17 02:32:00,57.6,48.2,30.24,SSE,147,0.0,0.0,71,0.00,,---,0.00,VWS V14.01,2013-08-17 06:32:00,
2013-08-17 02:37:00,57.6,48.6,30.24,SSE,147,0.0,0.0,72,0.00,,---,0.00,VWS V14.01,2013-08-17 06:37:00,
2013-08-17 02:42:00,57.4,48.4,30.24,SSE,147,0.0,0.0,72,0.00,,---,0.00,VWS V14.01,2013-08-17 06:42:00,
2013-08-17 02:47:00,57.4,48.4,30.24,SSE,147,0.0,0.0,72,0.00,,---,0.00,VWS V14.01,2013-08-17 06:47:00,
2013-08-17 02:52:00,57.4,48.4,30.24,SSE,147,0.0,0.0,72,0.00,,---,0.00,VWS V14.01,2013-08-17 06:52:00,
2013-08-17 02:57:00,57.4,48.4,30.24,SSE,148,0.0,0.0,72,0.00,,---,0.00,VWS V14.01,2013-08-17 06:57:00,
2013-08-17 03:02:00,57.2,48.3,30.24,SSE,147,0.0,0.0,72,0.00,,---,0.00,VWS V14.01,2013-08-17 07:02:00,
2013-08-17 03:07:00,57.2,48.3,30.24,SSE,147,0.0,0.0,72,0.00,,---,0.00,VWS V14.01,2013-08-17 07:07:00,
2013-08-17 03:12:00,57.2,48.6,30.24,SSE,147,0.0,0.0,73,0.00,,---,0.00,VWS V14.01,2013-08-17 07:12:00,
2013-08-17 03:17:00,57.2,48.6,30.24,SSE,147,0.0,0.0,73,0.00,,---,0.00,VWS V14.01,2013-08-17 07:17:00,
2013-08-17 03:22:00,57.2,48.6,30.24,SSE,147,0.0,0.0,73,0.00,,---,0.00,VWS V14.01,2013-08-17 07:22:00,
2013-08-17 03:27:00,57.0,48.5,30.24,SSE,147,0.0,0.0,73,0.00,,---,0.00,VWS V14.01,2013-08-17 07:27:00,
2013-08-17 03:32:00,57.0,48.5,30.24,SSE,147,0.0,0.0,73,0.00,,---,0.00,VWS V14.01,2013-08-17 07:32:00,
2013-08-17 03:37:00,56.8,48.3,30.24,SSE,147,0.0,0.0,73,0.00,,---,0.00,VWS V14.01,2013-08-17 07:37:00,
2013-08-17 03:42:00,56.8,48.3,30.24,SSE,147,0.0,0.0,73,0.00,,---,0.00,VWS V14.01,2013-08-17 07:42:00,
2013-08-17 03:47:00,56.8,48.3,30.24,SSE,147,0.0,0.0,73,0.00,,---,0.00,VWS V14.01,2013-08-17 07:47:00,
2013-08-17 03:52:00,56.7,48.1,30.24,SSE,147,0.0,0.0,73,0.00,,---,0.00,VWS V14.01,2013-08-17 07:52:00,
2013-08-17 03:58:00,56.5,47.9,30.24,SSE,148,0.0,0.0,73,0.00,,---,0.00,VWS V14.01,2013-08-17 07:58:00,
2013-08-17 04:03:00,56.5,47.9,30.24,SSE,147,0.0,0.0,73,0.00,,---,0.00,VWS V14.01,2013-08-17 08:03:00,
2013-08-17 04:08:00,56.3,47.8,30.24,SSE,147,0.0,0.0,73,0.00,,---,0.00,VWS V14.01,2013-08-17 08:08:00,
2013-08-17 04:13:00,56.3,47.8,30.24,SSE,147,0.0,0.0,73,0.00,,---,0.00,VWS V14.01,2013-08-17 08:13:00,
2013-08-17 04:18:00,56.3,47.8,30.24,SSE,147,0.0,0.0,73,0.00,,---,0.00,VWS V14.01,2013-08-17 08:18:00,
2013-08-17 04:23:00,56.3,48.1,30.24,SSE,147,0.0,0.0,74,0.00,,---,0.00,VWS V14.01,2013-08-17 08:23:00,
2013-08-17 04:28:00,56.1,48.0,30.24,SSE,147,0.0,0.0,74,0.00,,---,0.00,VWS V14.01,2013-08-17 08:28:00,
2013-08-17 04:33:00,55.9,47.8,30.24,SSE,147,0.0,0.0,74,0.00,,---,0.00,VWS V14.01,2013-08-17 08:33:00,
2013-08-17 04:38:00,55.9,47.8,30.24,SSE,147,0.0,0.0,74,0.00,,---,0.00,VWS V14.01,2013-08-17 08:38:00,
2013-08-17 04:43:00,55.9,47.8,30.24,SSE,147,0.0,0.0,74,0.00,,---,0.00,VWS V14.01,2013-08-17 08:43:00,
2013-08-17 04:48:00,55.9,47.8,30.24,SSE,147,0.0,0.0,74,0.00,,---,0.00,VWS V14.01,2013-08-17 08:48:00,
2013-08-17 04:53:00,55.8,47.6,30.24,SSE,147,0.0,0.0,74,0.00,,---,0.00,VWS V14.01,2013-08-17 08:53:00,
2013-08-17 04:58:00,55.6,47.4,30.24,SSE,147,0.0,0.0,74,0.00,,---,0.00,VWS V14.01,2013-08-17 08:58:00,
2013-08-17 05:03:00,55.6,47.4,30.24,SSE,147,0.0,0.0,74,0.00,,---,0.00,VWS V14.01,2013-08-17 09:03:00,
2013-08-17 05:08:00,55.6,47.4,30.24,SSE,147,0.0,0.0,74,0.00,,---,0.00,VWS V14.01,2013-08-17 09:08:00,
2013-08-17 05:13:00,55.4,47.3,30.24,SSE,147,0.0,0.0,74,0.00,,---,0.00,VWS V14.01,2013-08-17 09:13:00,
2013-08-17 05:18:00,55.4,47.3,30.24,SSE,147,0.0,0.0,74,0.00,,---,0.00,VWS V14.01,2013-08-17 09:18:00,
2013-08-17 05:23:00,55.4,47.6,30.24,SSE,147,0.0,0.0,75,0.00,,---,0.00,VWS V14.01,2013-08-17 09:23:00,
2013-08-17 05:28:00,55.6,47.8,30.24,SSE,147,0.0,0.0,75,0.00,,---,0.00,VWS V14.01,2013-08-17 09:28:00,
2013-08-17 05:33:00,55.6,47.8,30.24,SSE,147,0.0,0.0,75,0.00,,---,0.00,VWS V14.01,2013-08-17 09:33:00,
2013-08-17 05:38:00,55.6,47.8,30.24,SSE,147,0.0,0.0,75,0.00,,---,0.00,VWS V14.01,2013-08-17 09:38:00,
2013-08-17 05:43:00,55.6,47.8,30.24,SSE,148,0.0,0.0,75,0.00,,---,0.00,VWS V14.01,2013-08-17 09:43:00,
2013-08-17 05:48:00,55.6,48.2,30.24,SSE,147,0.0,0.0,76,0.00,,---,0.00,VWS V14.01,2013-08-17 09:48:00,
2013-08-17 05:53:00,55.8,48.3,30.24,SSE,147,0.0,0.0,76,0.00,,---,0.00,VWS V14.01,2013-08-17 09:53:00,
2013-08-17 05:58:00,55.8,48.3,30.24,SSE,147,0.0,0.0,76,0.00,,---,0.00,VWS V14.01,2013-08-17 09:58:00,
2013-08-17 06:03:00,55.8,48.3,30.24,SSE,147,0.0,0.0,76,0.00,,---,0.00,VWS V14.01,2013-08-17 10:03:00,
2013-08-17 06:08:00,55.9,48.8,30.27,SSE,147,0.0,0.0,77,0.00,,---,0.00,VWS V14.01,2013-08-17 10:08:00,
2013-08-17 06:13:00,55.8,48.7,30.27,SSE,148,0.0,0.0,77,0.00,,---,0.00,VWS V14.01,2013-08-17 10:13:00,
2013-08-17 06:19:00,55.8,48.7,30.27,SSE,147,0.0,0.0,77,0.00,,---,0.00,VWS V14.01,2013-08-17 10:19:00,
2013-08-17 06:24:00,55.6,48.5,30.27,SSE,147,0.0,0.0,77,0.00,,---,0.00,VWS V14.01,2013-08-17 10:24:00,
2013-08-17 06:29:00,55.6,48.5,30.27,SSE,147,0.0,0.0,77,0.00,,---,0.00,VWS V14.01,2013-08-17 10:29:00,
2013-08-17 06:34:00,55.6,48.5,30.27,SSE,147,0.0,0.0,77,0.00,,---,0.00,VWS V14.01,2013-08-17 10:34:00,
2013-08-17 06:39:00,55.6,48.5,30.27,SSE,147,0.0,0.0,77,0.00,,---,0.00,VWS V14.01,2013-08-17 10:39:00,
2013-08-17 06:44:00,55.6,48.8,30.27,SSE,147,0.0,0.0,78,0.00,,---,0.00,VWS V14.01,2013-08-17 10:44:00,
2013-08-17 06:49:00,55.4,48.7,30.27,SSE,147,0.0,0.0,78,0.00,,---,0.00,VWS V14.01,2013-08-17 10:49:00,
2013-08-17 06:54:00,55.6,48.8,30.27,SSE,147,0.0,0.0,78,0.00,,---,0.00,VWS V14.01,2013-08-17 10:54:00,
2013-08-17 06:59:00,55.6,48.8,30.27,SSE,147,0.0,0.0,78,0.00,,---,0.00,VWS V14.01,2013-08-17 10:59:00,
2013-08-17 07:04:00,55.8,49.0,30.27,SSE,147,0.0,0.0,78,0.00,,---,0.00,VWS V14.01,2013-08-17 11:04:00,
2013-08-17 07:09:00,55.9,49.2,30.27,SSE,147,0.0,0.0,78,0.00,,---,0.00,VWS V14.01,2013-08-17 11:09:00,
2013-08-17 07:14:00,55.9,49.5,30.27,SSE,147,0.0,0.0,79,0.00,,---,0.00,VWS V14.01,2013-08-17 11:14:00,
2013-08-17 07:19:00,55.9,49.5,30.27,SSE,147,0.0,0.0,79,0.00,,---,0.00,VWS V14.01,2013-08-17 11:19:00,
2013-08-17 07:24:00,56.3,49.9,30.27,SSE,147,0.0,0.0,79,0.00,,---,0.00,VWS V14.01,2013-08-17 11:24:00,
2013-08-17 07:29:00,56.3,49.9,30.27,SSE,147,0.0,0.0,79,0.00,,---,0.00,VWS V14.01,2013-08-17 11:29:00,
2013-08-17 07:34:00,56.5,50.1,30.27,SSE,147,0.0,0.0,79,0.00,,---,0.00,VWS V14.01,2013-08-17 11:34:00,
2013-08-17 07:39:00,56.7,50.2,30.27,SSE,147,0.0,0.0,79,0.00,,---,0.00,VWS V14.01,2013-08-17 11:39:00,
2013-08-17 07:44:00,56.8,50.4,30.27,SSE,147,0.0,0.0,79,0.00,,---,0.00,VWS V14.01,2013-08-17 11:44:00,
2013-08-17 07:49:00,56.8,50.4,30.27,SSE,147,0.0,0.0,79,0.00,,---,0.00,VWS V14.01,2013-08-17 11:49:00,
2013-08-17 07:54:00,57.2,50.8,30.27,SSE,147,0.0,0.0,79,0.00,,---,0.00,VWS V14.01,2013-08-17 11:54:00,
2013-08-17 07:59:00,57.2,50.8,30.27,SSE,147,0.0,0.0,79,0.00,,---,0.00,VWS V14.01,2013-08-17 11:59:00,
2013-08-17 08:04:00,57.4,50.9,30.27,SSE,147,0.0,0.0,79,0.00,,---,0.00,VWS V14.01,2013-08-17 12:04:00,
2013-08-17 08:06:00,57.6,51.1,30.27,SSE,147,0.0,0.0,79,0.00,,---,0.00,VWS V14.01,2013-08-17 12:06:00,
2013-08-17 08:11:00,57.7,51.3,30.27,SSE,147,0.0,0.0,79,0.00,,---,0.00,VWS V14.01,2013-08-17 12:11:00,
2013-08-17 08:16:00,57.9,51.5,30.27,SSE,147,0.0,0.0,79,0.00,,---,0.00,VWS V14.01,2013-08-17 12:16:00,
2013-08-17 08:21:00,58.1,51.6,30.30,SSE,147,0.0,0.0,79,0.00,,---,0.00,VWS V14.01,2013-08-17 12:21:00,
2013-08-17 08:26:00,58.5,52.0,30.30,SSE,147,0.0,0.0,79,0.00,,---,0.00,VWS V14.01,2013-08-17 12:26:00,
2013-08-17 08:31:00,58.8,52.3,30.30,SSE,147,0.0,0.0,79,0.00,,---,0.00,VWS V14.01,2013-08-17 12:31:00,
2013-08-17 08:36:00,59.2,52.7,30.27,SSE,147,0.0,0.0,79,0.00,,---,0.00,VWS V14.01,2013-08-17 12:36:00,
2013-08-17 08:41:00,59.4,52.9,30.27,SSE,147,0.0,2.7,79,0.00,,---,0.00,VWS V14.01,2013-08-17 12:41:00,
2013-08-17 08:47:00,59.7,53.2,30.27,SSE,147,0.0,0.0,79,0.00,,---,0.00,VWS V14.01,2013-08-17 12:47:00,
2013-08-17 08:52:00,59.9,53.4,30.30,SSE,147,0.0,0.0,79,0.00,,---,0.00,VWS V14.01,2013-08-17 12:52:00,
2013-08-17 08:57:00,60.3,53.7,30.30,SSE,147,0.0,2.7,79,0.00,,---,0.00,VWS V14.01,2013-08-17 12:57:00,
2013-08-17 09:02:00,60.6,54.1,30.30,SSE,147,0.0,2.7,79,0.00,,---,0.00,VWS V14.01,2013-08-17 13:02:00,
2013-08-17 09:07:00,61.0,54.4,30.27,SSE,147,0.0,3.6,79,0.00,,---,0.00,VWS V14.01,2013-08-17 13:07:00,
2013-08-17 09:12:00,61.5,55.0,30.27,SSE,147,0.0,3.6,79,0.00,,---,0.00,VWS V14.01,2013-08-17 13:12:00,
2013-08-17 09:17:00,61.9,55.3,30.27,SSE,147,0.0,2.7,79,0.00,,---,0.00,VWS V14.01,2013-08-17 13:17:00,
2013-08-17 09:22:00,62.2,55.7,30.30,SSE,147,0.0,0.0,79,0.00,,---,0.00,VWS V14.01,2013-08-17 13:22:00,
2013-08-17 09:27:00,62.8,55.8,30.30,SSE,147,0.0,4.0,78,0.00,,---,0.00,VWS V14.01,2013-08-17 13:27:00,
2013-08-17 09:32:00,63.1,56.2,30.30,SSE,147,2.7,2.7,78,0.00,,---,0.00,VWS V14.01,2013-08-17 13:32:00,
2013-08-17 09:37:00,63.5,56.2,30.30,SSE,147,0.0,3.6,77,0.00,,---,0.00,VWS V14.01,2013-08-17 13:37:00,
2013-08-17 09:42:00,63.9,56.2,30.30,SSE,147,0.0,3.6,76,0.00,,---,0.00,VWS V14.01,2013-08-17 13:42:00,
2013-08-17 09:47:00,64.2,56.1,30.30,SSE,148,2.7,2.7,75,0.00,,---,0.00,VWS V14.01,2013-08-17 13:47:00,
2013-08-17 09:52:00,64.8,56.3,30.30,SSE,147,0.0,0.0,74,0.00,,---,0.00,VWS V14.01,2013-08-17 13:52:00,
2013-08-17 09:57:00,65.1,56.3,30.30,SSE,147,0.0,3.1,73,0.00,,---,0.00,VWS V14.01,2013-08-17 13:57:00,
2013-08-17 10:02:00,65.5,56.2,30.30,SSE,147,0.0,0.0,72,0.00,,---,0.00,VWS V14.01,2013-08-17 14:02:00,
2013-08-17 10:07:00,66.0,56.7,30.30,SSE,147,3.6,3.6,72,0.00,,---,0.00,VWS V14.01,2013-08-17 14:07:00,
2013-08-17 10:12:00,66.4,56.7,30.30,SSE,147,0.0,2.7,71,0.00,,---,0.00,VWS V14.01,2013-08-17 14:12:00,
2013-08-17 10:17:00,66.9,56.8,30.30,SSE,147,0.0,2.7,70,0.00,,---,0.00,VWS V14.01,2013-08-17 14:17:00,
2013-08-17 10:22:00,67.3,56.8,30.30,SSE,147,2.7,3.1,69,0.00,,---,0.00,VWS V14.01,2013-08-17 14:22:00,
2013-08-17 10:27:00,67.6,57.1,30.30,SSE,147,0.0,3.6,69,0.00,,---,0.00,VWS V14.01,2013-08-17 14:27:00,
2013-08-17 10:32:00,68.2,57.2,30.30,SSE,147,0.0,2.7,68,0.00,,---,0.00,VWS V14.01,2013-08-17 14:32:00,
2013-08-17 10:37:00,68.5,56.7,30.30,SSE,148,0.0,0.0,66,0.00,,---,0.00,VWS V14.01,2013-08-17 14:37:00,
2013-08-17 10:42:00,69.1,56.4,30.30,SSE,147,0.0,0.0,64,0.00,,---,0.00,VWS V14.01,2013-08-17 14:42:00,
2013-08-17 10:47:00,69.4,54.5,30.30,SSE,148,0.0,0.0,59,0.00,,---,0.00,VWS V14.01,2013-08-17 14:47:00,
2013-08-17 10:52:00,69.8,51.4,30.30,SSE,147,0.0,0.0,52,0.00,,---,0.00,VWS V14.01,2013-08-17 14:52:00,
2013-08-17 10:57:00,70.2,48.4,30.30,SSE,147,0.0,0.0,46,0.00,,---,0.00,VWS V14.01,2013-08-17 14:57:00,
2013-08-17 11:02:00,70.5,48.2,30.30,SSE,147,0.0,0.0,45,0.00,,---,0.00,VWS V14.01,2013-08-17 15:02:00,
2013-08-17 11:07:00,71.2,46.4,30.30,SSE,147,0.0,0.0,41,0.00,,---,0.00,VWS V14.01,2013-08-17 15:07:00,
2013-08-17 11:12:00,71.6,43.3,30.30,SSE,147,0.0,0.0,36,0.00,,---,0.00,VWS V14.01,2013-08-17 15:12:00,
2013-08-17 11:17:00,72.1,43.0,30.30,SSE,147,0.0,0.0,35,0.00,,---,0.00,VWS V14.01,2013-08-17 15:17:00,
2013-08-17 11:22:00,72.3,41.6,30.30,SSE,147,0.0,0.0,33,0.00,,---,0.00,VWS V14.01,2013-08-17 15:22:00,
2013-08-17 11:27:00,72.9,42.1,30.30,SSE,148,0.0,0.0,33,0.00,,---,0.00,VWS V14.01,2013-08-17 15:27:00,
2013-08-17 11:32:00,73.2,41.6,30.30,SSE,147,0.0,0.0,32,0.00,,---,0.00,VWS V14.01,2013-08-17 15:32:00,
2013-08-17 11:38:00,73.6,41.9,30.27,SSE,147,0.0,0.0,32,0.00,,---,0.00,VWS V14.01,2013-08-17 15:38:00,
2013-08-17 11:43:00,73.8,42.1,30.27,SSE,147,0.0,0.0,32,0.00,,---,0.00,VWS V14.01,2013-08-17 15:43:00,
2013-08-17 11:48:00,74.3,41.7,30.27,SSE,147,0.0,0.0,31,0.00,,---,0.00,VWS V14.01,2013-08-17 15:48:00,
2013-08-17 11:53:00,75.2,42.5,30.27,SSE,148,0.0,0.0,31,0.00,,---,0.00,VWS V14.01,2013-08-17 15:53:00,
2013-08-17 11:58:00,75.6,41.1,30.27,SSE,147,0.0,0.0,29,0.00,,---,0.00,VWS V14.01,2013-08-17 15:58:00,
2013-08-17 12:03:00,75.9,38.6,30.27,SSE,147,0.0,0.0,26,0.00,,---,0.00,VWS V14.01,2013-08-17 16:03:00,
2013-08-17 12:08:00,77.0,38.5,30.27,SSE,147,0.0,0.0,25,0.00,,---,0.00,VWS V14.01,2013-08-17 16:08:00,
2013-08-17 12:13:00,77.2,36.5,30.27,SSE,147,0.0,0.0,23,0.00,,---,0.00,VWS V14.01,2013-08-17 16:13:00,
2013-08-17 12:18:00,77.7,37.0,30.27,SSE,147,0.0,0.0,23,0.00,,---,0.00,VWS V14.01,2013-08-17 16:18:00,
2013-08-17 12:23:00,78.4,36.5,30.27,SSE,147,0.0,0.0,22,0.00,,---,0.00,VWS V14.01,2013-08-17 16:23:00,
2013-08-17 12:28:00,79.0,35.8,30.27,SSE,147,0.0,0.0,21,0.00,,---,0.00,VWS V14.01,2013-08-17 16:28:00,
2013-08-17 12:33:00,79.3,36.0,30.27,SSE,147,0.0,0.0,21,0.00,,---,0.00,VWS V14.01,2013-08-17 16:33:00,
2013-08-17 12:38:00,79.9,35.3,30.27,SSE,148,0.0,0.0,20,0.00,,---,0.00,VWS V14.01,2013-08-17 16:38:00,
2013-08-17 12:43:00,80.2,35.6,30.27,SSE,148,0.0,0.0,20,0.00,,---,0.00,VWS V14.01,2013-08-17 16:43:00,
2013-08-17 12:48:00,78.8,34.4,30.27,SSE,148,0.0,0.0,20,0.00,,---,0.00,VWS V14.01,2013-08-17 16:48:00,
2013-08-17 12:53:00,79.7,35.1,30.27,SSE,156,0.0,0.0,20,0.00,,---,0.00,VWS V14.01,2013-08-17 16:53:00,
2013-08-17 12:58:00,80.8,36.0,30.27,SSW,198,0.0,0.0,20,0.00,,---,0.00,VWS V14.01,2013-08-17 16:58:00,
2013-08-17 13:03:00,81.1,32.2,30.27,SSW,197,0.0,0.0,17,0.00,,---,0.00,VWS V14.01,2013-08-17 17:03:00,
2013-08-17 13:08:00,80.8,32.0,30.27,South,171,0.0,0.0,17,0.00,,---,0.00,VWS V14.01,2013-08-17 17:08:00,
2013-08-17 13:13:00,79.3,34.8,30.27,South,170,0.0,0.0,20,0.00,,---,0.00,VWS V14.01,2013-08-17 17:13:00,
2013-08-17 13:18:00,77.5,33.3,30.27,South,170,0.0,0.0,20,0.00,,---,0.00,VWS V14.01,2013-08-17 17:18:00,
2013-08-17 13:23:00,76.5,32.5,30.27,South,171,0.0,0.0,20,0.00,,---,0.00,VWS V14.01,2013-08-17 17:23:00,
2013-08-17 13:28:00,77.9,37.2,30.27,South,171,0.0,0.0,23,0.00,,---,0.00,VWS V14.01,2013-08-17 17:28:00,
2013-08-17 13:33:00,79.5,37.4,30.27,South,170,0.0,0.0,22,0.00,,---,0.00,VWS V14.01,2013-08-17 17:33:00,
2013-08-17 13:38:00,80.8,37.2,30.27,South,171,0.0,0.0,21,0.00,,---,0.00,VWS V14.01,2013-08-17 17:38:00,
2013-08-17 13:43:00,81.1,36.3,30.27,South,170,0.0,0.0,20,0.00,,---,0.00,VWS V14.01,2013-08-17 17:43:00,
2013-08-17 13:48:00,80.8,34.7,30.27,South,171,0.0,0.0,19,0.00,,---,0.00,VWS V14.01,2013-08-17 17:48:00,
2013-08-17 13:53:00,81.5,32.5,30.27,WSW,255,0.0,0.0,17,0.00,,---,0.00,VWS V14.01,2013-08-17 17:53:00,
2013-08-17 13:58:00,82.9,32.2,30.27,WSW,237,0.0,0.0,16,0.00,,---,0.00,VWS V14.01,2013-08-17 17:58:00,
2013-08-17 14:03:00,84.2,28.1,30.27,WSW,237,0.0,0.0,13,0.00,,---,0.00,VWS V14.01,2013-08-17 18:03:00,
2013-08-17 14:08:00,84.4,28.2,30.27,SW,231,0.0,0.0,13,0.00,,---,0.00,VWS V14.01,2013-08-17 18:08:00,
2013-08-17 14:13:00,84.7,24.5,30.27,SW,232,0.0,0.0,11,0.00,,---,0.00,VWS V14.01,2013-08-17 18:13:00,
2013-08-17 14:18:00,85.3,24.9,30.27,SW,232,0.0,0.0,11,0.00,,---,0.00,VWS V14.01,2013-08-17 18:18:00,
2013-08-17 14:23:00,84.7,24.5,30.27,SW,232,0.0,0.0,11,0.00,,---,0.00,VWS V14.01,2013-08-17 18:23:00,
2013-08-17 14:28:00,84.0,23.9,30.27,SW,232,0.0,0.0,11,0.00,,---,0.00,VWS V14.01,2013-08-17 18:28:00,
2013-08-17 14:33:00,83.3,23.4,30.27,WSW,254,0.0,0.0,11,0.00,,---,0.00,VWS V14.01,2013-08-17 18:33:00,
2013-08-17 14:38:00,83.3,29.2,30.27,ESE,111,0.0,0.0,14,0.00,,---,0.00,VWS V14.01,2013-08-17 18:38:00,
2013-08-17 14:43:00,81.9,28.0,30.27,ESE,111,0.0,0.0,14,0.00,,---,0.00,VWS V14.01,2013-08-17 18:43:00,
2013-08-17 14:48:00,80.6,31.8,30.27,ESE,111,0.0,0.0,17,0.00,,---,0.00,VWS V14.01,2013-08-17 18:48:00,
2013-08-17 14:53:00,79.0,30.5,30.27,ESE,111,0.0,0.0,17,0.00,,---,0.00,VWS V14.01,2013-08-17 18:53:00,
2013-08-17 14:58:00,77.7,33.5,30.27,ESE,111,0.0,0.0,20,0.00,,---,0.00,VWS V14.01,2013-08-17 18:58:00,
2013-08-17 15:04:00,77.5,35.7,30.27,ESE,111,0.0,0.0,22,0.00,,---,0.00,VWS V14.01,2013-08-17 19:04:00,
2013-08-17 15:09:00,79.2,38.2,30.27,ESE,111,0.0,0.0,23,0.00,,---,0.00,VWS V14.01,2013-08-17 19:09:00,
2013-08-17 15:14:00,79.9,35.3,30.27,ESE,111,0.0,0.0,20,0.00,,---,0.00,VWS V14.01,2013-08-17 19:14:00,
2013-08-17 15:19:00,80.2,35.6,30.27,ESE,111,0.0,0.0,20,0.00,,---,0.00,VWS V14.01,2013-08-17 19:19:00,
2013-08-17 15:24:00,80.8,37.2,30.24,SE,130,0.0,0.0,21,0.00,,---,0.00,VWS V14.01,2013-08-17 19:24:00,
2013-08-17 15:29:00,82.4,36.0,30.24,SW,221,0.0,0.0,19,0.00,,---,0.00,VWS V14.01,2013-08-17 19:29:00,
2013-08-17 15:34:00,83.5,32.6,30.24,SW,222,0.0,0.0,16,0.00,,---,0.00,VWS V14.01,2013-08-17 19:34:00,
2013-08-17 15:39:00,84.0,27.9,30.24,SW,222,0.0,0.0,13,0.00,,---,0.00,VWS V14.01,2013-08-17 19:39:00,
2013-08-17 15:44:00,84.6,28.4,30.24,WSW,249,0.0,2.7,13,0.00,,---,0.00,VWS V14.01,2013-08-17 19:44:00,
2013-08-17 15:49:00,84.9,28.6,30.24,WSW,255,0.0,0.0,13,0.00,,---,0.00,VWS V14.01,2013-08-17 19:49:00,
2013-08-17 15:54:00,84.6,28.4,30.24,West,267,0.0,0.0,13,0.00,,---,0.00,VWS V14.01,2013-08-17 19:54:00,
2013-08-17 15:59:00,84.6,24.3,30.24,West,267,0.0,0.0,11,0.00,,---,0.00,VWS V14.01,2013-08-17 19:59:00,
2013-08-17 16:04:00,83.8,27.8,30.24,West,267,0.0,0.0,13,0.00,,---,0.00,VWS V14.01,2013-08-17 20:04:00,
2013-08-17 16:09:00,83.5,32.6,30.24,West,267,0.0,0.0,16,0.00,,---,0.00,VWS V14.01,2013-08-17 20:09:00,
2013-08-17 16:14:00,83.5,27.5,30.24,West,267,0.0,0.0,13,0.00,,---,0.00,VWS V14.01,2013-08-17 20:14:00,
2013-08-17 16:19:00,81.7,27.9,30.24,West,267,0.0,0.0,14,0.00,,---,0.00,VWS V14.01,2013-08-17 20:19:00,
2013-08-17 16:24:00,80.6,27.0,30.24,North,351,0.0,0.0,14,0.00,,---,0.00,VWS V14.01,2013-08-17 20:24:00,
2013-08-17 16:29:00,81.1,27.5,30.24,SW,226,0.0,0.0,14,0.00,,---,0.00,VWS V14.01,2013-08-17 20:29:00,
2013-08-17 16:34:00,81.7,27.9,30.24,North,351,0.0,0.0,14,0.00,,---,0.00,VWS V14.01,2013-08-17 20:34:00,
2013-08-17 16:39:00,82.8,28.8,30.24,North,351,0.0,0.0,14,0.00,,---,0.00,VWS V14.01,2013-08-17 20:39:00,
2013-08-17 16:44:00,83.5,27.5,30.24,North,351,0.0,0.0,13,0.00,,---,0.00,VWS V14.01,2013-08-17 20:44:00,
2013-08-17 16:49:00,83.8,27.8,30.24,NNE,31,0.0,0.0,13,0.00,,---,0.00,VWS V14.01,2013-08-17 20:49:00,
2013-08-17 16:54:00,83.7,23.6,30.24,NW,321,0.0,0.0,11,0.00,,---,0.00,VWS V14.01,2013-08-17 20:54:00,
2013-08-17 16:59:00,83.1,23.2,30.24,NW,321,0.0,0.0,11,0.00,,---,0.00,VWS V14.01,2013-08-17 20:59:00,
2013-08-17 17:04:00,82.8,23.0,30.24,West,264,0.0,0.0,11,0.00,,---,0.00,VWS V14.01,2013-08-17 21:04:00,
2013-08-17 17:09:00,82.9,23.1,30.24,NNW,334,0.0,0.0,11,0.00,,---,0.00,VWS V14.01,2013-08-17 21:09:00,
2013-08-17 17:14:00,82.9,23.1,30.24,West,268,0.0,0.0,11,0.00,,---,0.00,VWS V14.01,2013-08-17 21:14:00,
2013-08-17 17:19:00,82.6,22.8,30.24,NW,314,0.0,0.0,11,0.00,,---,0.00,VWS V14.01,2013-08-17 21:19:00,
2013-08-17 17:24:00,81.7,22.1,30.24,NW,314,0.0,0.0,11,0.00,,---,0.00,VWS V14.01,2013-08-17 21:24:00,
2013-08-17 17:29:00,80.2,23.1,30.24,NW,314,0.0,0.0,12,0.00,,---,0.00,VWS V14.01,2013-08-17 21:29:00,
2013-08-17 17:34:00,79.3,22.4,30.24,NW,314,0.0,0.0,12,0.00,,---,0.00,VWS V14.01,2013-08-17 21:34:00,
2013-08-17 17:39:00,78.8,30.4,30.24,NW,314,0.0,0.0,17,0.00,,---,0.00,VWS V14.01,2013-08-17 21:39:00,
2013-08-17 17:44:00,78.1,33.8,30.24,NW,314,0.0,0.0,20,0.00,,---,0.00,VWS V14.01,2013-08-17 21:44:00,
2013-08-17 17:49:00,77.7,34.7,30.24,NW,314,0.0,0.0,21,0.00,,---,0.00,VWS V14.01,2013-08-17 21:49:00,
2013-08-17 17:54:00,77.5,34.6,30.24,NW,314,0.0,0.0,21,0.00,,---,0.00,VWS V14.01,2013-08-17 21:54:00,
2013-08-17 17:59:00,77.2,35.4,30.24,NW,314,0.0,0.0,22,0.00,,---,0.00,VWS V14.01,2013-08-17 21:59:00,
2013-08-17 18:04:00,77.0,36.4,30.24,NW,314,0.0,0.0,23,0.00,,---,0.00,VWS V14.01,2013-08-17 22:04:00,
2013-08-17 18:09:00,76.6,36.1,30.27,NW,314,0.0,0.0,23,0.00,,---,0.00,VWS V14.01,2013-08-17 22:09:00,
2013-08-17 18:14:00,76.3,35.8,30.27,NW,314,0.0,0.0,23,0.00,,---,0.00,VWS V14.01,2013-08-17 22:14:00,
2013-08-17 18:19:00,76.3,38.9,30.27,NW,314,0.0,0.0,26,0.00,,---,0.00,VWS V14.01,2013-08-17 22:19:00,
2013-08-17 18:24:00,76.1,37.8,30.24,NW,314,0.0,0.0,25,0.00,,---,0.00,VWS V14.01,2013-08-17 22:24:00,
2013-08-17 18:29:00,75.7,38.5,30.24,NW,314,0.0,0.0,26,0.00,,---,0.00,VWS V14.01,2013-08-17 22:29:00,
2013-08-17 18:34:00,75.0,39.7,30.24,NW,314,0.0,0.0,28,0.00,,---,0.00,VWS V14.01,2013-08-17 22:34:00,
2013-08-17 18:39:00,74.5,41.0,30.27,NW,314,0.0,0.0,30,0.00,,---,0.00,VWS V14.01,2013-08-17 22:39:00,
2013-08-17 18:44:00,74.1,41.6,30.27,NW,314,0.0,0.0,31,0.00,,---,0.00,VWS V14.01,2013-08-17 22:44:00,
2013-08-17 18:49:00,73.8,42.9,30.27,NW,314,0.0,0.0,33,0.00,,---,0.00,VWS V14.01,2013-08-17 22:49:00,
2013-08-17 18:54:00,73.4,42.6,30.24,NW,314,0.0,0.0,33,0.00,,---,0.00,VWS V14.01,2013-08-17 22:54:00,
2013-08-17 18:59:00,73.0,43.0,30.24,NW,314,0.0,0.0,34,0.00,,---,0.00,VWS V14.01,2013-08-17 22:59:00,
2013-08-17 19:04:00,72.7,42.7,30.24,NW,314,0.0,0.0,34,0.00,,---,0.00,VWS V14.01,2013-08-17 23:04:00,
2013-08-17 19:09:00,72.5,43.3,30.24,NW,314,0.0,0.0,35,0.00,,---,0.00,VWS V14.01,2013-08-17 23:09:00,
2013-08-17 19:14:00,72.1,43.0,30.24,NW,314,0.0,0.0,35,0.00,,---,0.00,VWS V14.01,2013-08-17 23:14:00,
2013-08-17 19:19:00,71.8,44.1,30.24,NW,314,0.0,0.0,37,0.00,,---,0.00,VWS V14.01,2013-08-17 23:19:00,
2013-08-17 19:24:00,71.6,44.0,30.27,NW,314,0.0,0.0,37,0.00,,---,0.00,VWS V14.01,2013-08-17 23:24:00,
2013-08-17 19:29:00,71.4,43.8,30.27,NW,314,0.0,0.0,37,0.00,,---,0.00,VWS V14.01,2013-08-17 23:29:00,
2013-08-17 19:34:00,71.1,44.2,30.27,NW,314,0.0,0.0,38,0.00,,---,0.00,VWS V14.01,2013-08-17 23:34:00,
2013-08-17 19:39:00,70.9,44.7,30.27,NW,314,0.0,0.0,39,0.00,,---,0.00,VWS V14.01,2013-08-17 23:39:00,
2013-08-17 19:44:00,70.7,45.2,30.27,NW,314,0.0,0.0,40,0.00,,---,0.00,VWS V14.01,2013-08-17 23:44:00,
2013-08-17 19:49:00,70.3,44.9,30.27,NW,314,0.0,0.0,40,0.00,,---,0.00,VWS V14.01,2013-08-17 23:49:00,
2013-08-17 19:54:00,70.2,44.7,30.27,NW,314,0.0,0.0,40,0.00,,---,0.00,VWS V14.01,2013-08-17 23:54:00,
2013-08-17 19:59:00,70.0,44.6,30.27,NW,314,0.0,0.0,40,0.00,,---,0.00,VWS V14.01,2013-08-17 23:59:00,
2013-08-17 20:04:00,70.0,45.2,30.27,NW,314,0.0,0.0,41,0.00,,---,0.00,VWS V14.01,2013-08-18 00:04:00,
2013-08-17 20:09:00,69.8,45.7,30.27,NW,314,0.0,0.0,42,0.00,,---,0.00,VWS V14.01,2013-08-18 00:09:00,
2013-08-17 20:14:00,69.4,45.4,30.27,NW,314,0.0,0.0,42,0.00,,---,0.00,VWS V14.01,2013-08-18 00:14:00,
2013-08-17 20:19:00,69.3,46.4,30.27,NW,314,0.0,0.0,44,0.00,,---,0.00,VWS V14.01,2013-08-18 00:19:00,
2013-08-17 20:24:00,69.1,46.9,30.27,NW,314,0.0,0.0,45,0.00,,---,0.00,VWS V14.01,2013-08-18 00:24:00,
2013-08-17 20:29:00,68.7,47.1,30.27,NW,314,0.0,0.0,46,0.00,,---,0.00,VWS V14.01,2013-08-18 00:29:00,
2013-08-17 20:34:00,68.5,47.5,30.27,NW,314,0.0,0.0,47,0.00,,---,0.00,VWS V14.01,2013-08-18 00:34:00,
2013-08-17 20:39:00,68.4,47.9,30.27,NW,314,0.0,0.0,48,0.00,,---,0.00,VWS V14.01,2013-08-18 00:39:00,
2013-08-17 20:44:00,68.2,47.8,30.27,NW,314,0.0,0.0,48,0.00,,---,0.00,VWS V14.01,2013-08-18 00:44:00,
2013-08-17 20:49:00,68.2,47.8,30.27,NW,314,0.0,0.0,48,0.00,,---,0.00,VWS V14.01,2013-08-18 00:49:00,
2013-08-17 20:54:00,68.0,47.6,30.27,NW,314,0.0,0.0,48,0.00,,---,0.00,VWS V14.01,2013-08-18 00:54:00,
2013-08-17 20:59:00,67.8,47.4,30.27,NW,314,0.0,0.0,48,0.00,,---,0.00,VWS V14.01,2013-08-18 00:59:00,
2013-08-17 21:04:00,67.6,47.8,30.27,NW,314,0.0,0.0,49,0.00,,---,0.00,VWS V14.01,2013-08-18 01:04:00,
2013-08-17 21:09:00,67.3,48.0,30.27,NW,314,0.0,0.0,50,0.00,,---,0.00,VWS V14.01,2013-08-18 01:09:00,
2013-08-17 21:14:00,67.1,47.9,30.27,NW,314,0.0,0.0,50,0.00,,---,0.00,VWS V14.01,2013-08-18 01:14:00,
2013-08-17 21:19:00,66.9,48.2,30.27,NW,314,0.0,0.0,51,0.00,,---,0.00,VWS V14.01,2013-08-18 01:19:00,
2013-08-17 21:24:00,66.7,48.6,30.27,NW,314,0.0,0.0,52,0.00,,---,0.00,VWS V14.01,2013-08-18 01:24:00,
2013-08-17 21:29:00,66.7,48.6,30.27,NW,314,0.0,0.0,52,0.00,,---,0.00,VWS V14.01,2013-08-18 01:29:00,
2013-08-17 21:34:00,66.4,48.8,30.27,NW,314,0.0,0.0,53,0.00,,---,0.00,VWS V14.01,2013-08-18 01:34:00,
2013-08-17 21:39:00,66.2,48.6,30.27,NW,314,0.0,0.0,53,0.00,,---,0.00,VWS V14.01,2013-08-18 01:39:00,
2013-08-17 21:44:00,66.0,48.4,30.27,NW,314,0.0,0.0,53,0.00,,---,0.00,VWS V14.01,2013-08-18 01:44:00,
2013-08-17 21:49:00,65.8,48.2,30.27,NW,314,0.0,0.0,53,0.00,,---,0.00,VWS V14.01,2013-08-18 01:49:00,
2013-08-17 21:54:00,65.7,49.1,30.27,NW,314,0.0,0.0,55,0.00,,---,0.00,VWS V14.01,2013-08-18 01:54:00,
2013-08-17 21:59:00,65.5,48.9,30.27,NW,314,0.0,0.0,55,0.00,,---,0.00,VWS V14.01,2013-08-18 01:59:00,
2013-08-17 22:04:00,65.3,49.7,30.27,NW,314,0.0,0.0,57,0.00,,---,0.00,VWS V14.01,2013-08-18 02:04:00,
2013-08-17 22:09:00,65.1,50.0,30.27,NW,314,0.0,0.0,58,0.00,,---,0.00,VWS V14.01,2013-08-18 02:09:00,
2013-08-17 22:14:00,65.1,50.5,30.27,NW,314,0.0,0.0,59,0.00,,---,0.00,VWS V14.01,2013-08-18 02:14:00,
2013-08-17 22:19:00,64.9,50.7,30.27,NW,314,0.0,0.0,60,0.00,,---,0.00,VWS V14.01,2013-08-18 02:19:00,
2013-08-17 22:24:00,64.9,50.7,30.27,NW,314,0.0,0.0,60,0.00,,---,0.00,VWS V14.01,2013-08-18 02:24:00,
2013-08-17 22:29:00,64.8,50.6,30.27,NW,314,0.0,0.0,60,0.00,,---,0.00,VWS V14.01,2013-08-18 02:29:00,
2013-08-17 22:34:00,64.8,51.0,30.27,NW,314,0.0,0.0,61,0.00,,---,0.00,VWS V14.01,2013-08-18 02:34:00,
2013-08-17 22:39:00,64.6,51.3,30.27,NW,314,0.0,0.0,62,0.00,,---,0.00,VWS V14.01,2013-08-18 02:39:00,
2013-08-17 22:44:00,64.4,51.5,30.27,NW,314,0.0,0.0,63,0.00,,---,0.00,VWS V14.01,2013-08-18 02:44:00,
2013-08-17 22:49:00,64.2,51.4,30.27,NW,314,0.0,0.0,63,0.00,,---,0.00,VWS V14.01,2013-08-18 02:49:00,
2013-08-17 22:54:00,64.2,51.8,30.27,NW,314,0.0,0.0,64,0.00,,---,0.00,VWS V14.01,2013-08-18 02:54:00,
2013-08-17 22:59:00,64.0,51.6,30.27,NW,314,0.0,0.0,64,0.00,,---,0.00,VWS V14.01,2013-08-18 02:59:00,
2013-08-17 23:04:00,64.0,52.0,30.27,NW,314,0.0,0.0,65,0.00,,---,0.00,VWS V14.01,2013-08-18 03:04:00,
2013-08-17 23:09:00,64.0,52.0,30.30,NW,314,0.0,0.0,65,0.00,,---,0.00,VWS V14.01,2013-08-18 03:09:00,
2013-08-17 23:14:00,63.9,51.9,30.30,NW,314,0.0,0.0,65,0.00,,---,0.00,VWS V14.01,2013-08-18 03:14:00,
2013-08-17 23:19:00,63.9,51.9,30.30,NW,314,0.0,0.0,65,0.00,,---,0.00,VWS V14.01,2013-08-18 03:19:00,
2013-08-17 23:24:00,63.7,51.7,30.30,NW,314,0.0,0.0,65,0.00,,---,0.00,VWS V14.01,2013-08-18 03:24:00,
2013-08-17 23:29:00,63.5,51.5,30.30,NW,314,0.0,0.0,65,0.00,,---,0.00,VWS V14.01,2013-08-18 03:29:00,
2013-08-17 23:34:00,63.5,52.0,30.30,NW,314,0.0,0.0,66,0.00,,---,0.00,VWS V14.01,2013-08-18 03:34:00,
2013-08-17 23:39:00,63.3,51.8,30.30,NW,314,0.0,0.0,66,0.00,,---,0.00,VWS V14.01,2013-08-18 03:39:00,
2013-08-17 23:44:00,63.1,51.6,30.30,NW,314,0.0,0.0,66,0.00,,---,0.00,VWS V14.01,2013-08-18 03:44:00,
2013-08-17 23:49:00,63.0,51.8,30.30,NW,314,0.0,0.0,67,0.00,,---,0.00,VWS V14.01,2013-08-18 03:49:00,
2013-08-17 23:54:00,62.8,52.1,30.30,NW,314,0.0,0.0,68,0.00,,---,0.00,VWS V14.01,2013-08-18 03:54:00,
2013-08-17 23:59:00,62.8,52.1,30.30,NW,314,0.0,0.0,68,0.00,,---,0.00,VWS V14.01,2013-08-18 03:59:00,